sensor_id;sensor_type;location;lat;lon;timestamp;temperature;humidity
61672;DHT22;47572;0.00000000;0.00000000;2022-12-07T00:01:19;18.70;67.90
61672;DHT22;47572;0.00000000;0.00000000;2022-12-07T00:03:45;18.60;67.90
61672;DHT22;47572;0.00000000;0.00000000;2022-12-07T00:06:12;18.60;67.90
61672;DHT22;47572;0.00000000;0.00000000;2022-12-07T00:08:38;18.60;67.90
61672;DHT22;47572;0.00000000;0.00000000;2022-12-07T00:11:08;18.60;67.90
61672;DHT22;47572;0.00000000;0.00000000;2022-12-07T00:13:34;18.60;67.90
61672;DHT22;47572;0.00000000;0.00000000;2022-12-07T00:16:07;18.60;67.90
61672;DHT22;47572;0.00000000;0.00000000;2022-12-07T00:18:33;18.60;67.90
61672;DHT22;47572;0.00000000;0.00000000;2022-12-07T00:21:32;18.50;67.80
61672;DHT22;47572;0.00000000;0.00000000;2022-12-07T00:23:51;18.60;68.00
61672;DHT22;47572;0.00000000;0.00000000;2022-12-07T00:26:18;18.50;67.90
61672;DHT22;47572;0.00000000;0.00000000;2022-12-07T00:28:45;18.50;67.90
61672;DHT22;47572;0.00000000;0.00000000;2022-12-07T00:31:11;18.50;67.90
61672;DHT22;47572;0.00000000;0.00000000;2022-12-07T00:33:38;18.50;67.90
61672;DHT22;47572;0.00000000;0.00000000;2022-12-07T00:36:05;18.50;67.90
61672;DHT22;47572;0.00000000;0.00000000;2022-12-07T00:38:32;18.50;67.90
61672;DHT22;47572;0.00000000;0.00000000;2022-12-07T00:41:00;18.50;67.80
61672;DHT22;47572;0.00000000;0.00000000;2022-12-07T00:43:26;18.40;67.80
61672;DHT22;47572;0.00000000;0.00000000;2022-12-07T00:45:52;18.40;67.70
61672;DHT22;47572;0.00000000;0.00000000;2022-12-07T00:48:18;18.40;67.90
61672;DHT22;47572;0.00000000;0.00000000;2022-12-07T00:50:44;18.40;67.90
61672;DHT22;47572;0.00000000;0.00000000;2022-12-07T00:53:09;18.40;67.80
61672;DHT22;47572;0.00000000;0.00000000;2022-12-07T00:55:35;18.40;67.80
61672;DHT22;47572;0.00000000;0.00000000;2022-12-07T00:58:02;18.40;67.80
61672;DHT22;47572;0.00000000;0.00000000;2022-12-07T01:00:27;18.40;67.70
61672;DHT22;47572;0.00000000;0.00000000;2022-12-07T01:02:53;18.40;67.80
61672;DHT22;47572;0.00000000;0.00000000;2022-12-07T01:05:19;18.40;67.70
61672;DHT22;47572;0.00000000;0.00000000;2022-12-07T01:07:45;18.40;67.80
61672;DHT22;47572;0.00000000;0.00000000;2022-12-07T01:10:12;18.30;67.70
61672;DHT22;47572;0.00000000;0.00000000;2022-12-07T01:12:38;18.30;67.70
61672;DHT22;47572;0.00000000;0.00000000;2022-12-07T01:15:04;18.30;67.70
61672;DHT22;47572;0.00000000;0.00000000;2022-12-07T01:17:30;18.30;67.70
61672;DHT22;47572;0.00000000;0.00000000;2022-12-07T01:19:55;18.30;67.60
61672;DHT22;47572;0.00000000;0.00000000;2022-12-07T01:22:21;18.30;67.60
61672;DHT22;47572;0.00000000;0.00000000;2022-12-07T01:24:47;18.30;67.70
61672;DHT22;47572;0.00000000;0.00000000;2022-12-07T01:27:13;18.30;67.70
61672;DHT22;47572;0.00000000;0.00000000;2022-12-07T01:29:38;18.30;67.60
61672;DHT22;47572;0.00000000;0.00000000;2022-12-07T01:32:04;18.30;67.70
61672;DHT22;47572;0.00000000;0.00000000;2022-12-07T01:34:30;18.20;67.60
61672;DHT22;47572;0.00000000;0.00000000;2022-12-07T01:36:56;18.20;67.60
61672;DHT22;47572;0.00000000;0.00000000;2022-12-07T01:39:22;18.20;67.60
61672;DHT22;47572;0.00000000;0.00000000;2022-12-07T01:41:48;18.20;67.60
61672;DHT22;47572;0.00000000;0.00000000;2022-12-07T01:44:21;18.20;67.50
61672;DHT22;47572;0.00000000;0.00000000;2022-12-07T01:49:15;18.20;67.60
61672;DHT22;47572;0.00000000;0.00000000;2022-12-07T01:51:41;18.20;67.60
61672;DHT22;47572;0.00000000;0.00000000;2022-12-07T01:54:08;18.20;67.60
61672;DHT22;47572;0.00000000;0.00000000;2022-12-07T01:56:35;18.20;67.60
61672;DHT22;47572;0.00000000;0.00000000;2022-12-07T01:59:01;18.20;67.60
61672;DHT22;47572;0.00000000;0.00000000;2022-12-07T02:01:27;18.20;68.50
61672;DHT22;47572;0.00000000;0.00000000;2022-12-07T02:03:53;18.20;67.60
61672;DHT22;47572;0.00000000;0.00000000;2022-12-07T02:06:20;18.10;67.60
61672;DHT22;47572;0.00000000;0.00000000;2022-12-07T02:08:47;18.10;67.50
61672;DHT22;47572;0.00000000;0.00000000;2022-12-07T02:11:14;18.10;67.60
61672;DHT22;47572;0.00000000;0.00000000;2022-12-07T02:13:41;18.10;67.60
61672;DHT22;47572;0.00000000;0.00000000;2022-12-07T02:21:46;18.10;67.60
61672;DHT22;47572;0.00000000;0.00000000;2022-12-07T02:29:26;18.10;67.60
61672;DHT22;47572;0.00000000;0.00000000;2022-12-07T02:32:02;18.00;67.50
61672;DHT22;47572;0.00000000;0.00000000;2022-12-07T02:34:35;18.00;67.50
61672;DHT22;47572;0.00000000;0.00000000;2022-12-07T02:37:05;18.00;67.50
61672;DHT22;47572;0.00000000;0.00000000;2022-12-07T02:39:39;18.00;67.50
61672;DHT22;47572;0.00000000;0.00000000;2022-12-07T02:42:10;18.00;67.50
61672;DHT22;47572;0.00000000;0.00000000;2022-12-07T02:44:37;18.00;67.50
61672;DHT22;47572;0.00000000;0.00000000;2022-12-07T02:47:05;18.00;67.50
61672;DHT22;47572;0.00000000;0.00000000;2022-12-07T02:49:31;18.00;67.40
61672;DHT22;47572;0.00000000;0.00000000;2022-12-07T02:51:57;18.00;67.40
61672;DHT22;47572;0.00000000;0.00000000;2022-12-07T02:54:22;18.00;67.40
61672;DHT22;47572;0.00000000;0.00000000;2022-12-07T02:56:50;18.00;67.40
61672;DHT22;47572;0.00000000;0.00000000;2022-12-07T03:09:37;17.90;67.30
61672;DHT22;47572;0.00000000;0.00000000;2022-12-07T03:12:10;17.90;68.20
61672;DHT22;47572;0.00000000;0.00000000;2022-12-07T03:14:41;17.90;67.40
61672;DHT22;47572;0.00000000;0.00000000;2022-12-07T03:17:18;17.80;67.40
61672;DHT22;47572;0.00000000;0.00000000;2022-12-07T03:19:44;17.90;67.40
61672;DHT22;47572;0.00000000;0.00000000;2022-12-07T03:22:12;17.90;67.40
61672;DHT22;47572;0.00000000;0.00000000;2022-12-07T03:24:48;17.90;67.40
61672;DHT22;47572;0.00000000;0.00000000;2022-12-07T03:27:21;17.80;67.40
61672;DHT22;47572;0.00000000;0.00000000;2022-12-07T03:29:50;17.80;67.30
61672;DHT22;47572;0.00000000;0.00000000;2022-12-07T03:32:23;17.80;67.30
61672;DHT22;47572;0.00000000;0.00000000;2022-12-07T03:34:53;17.80;67.30
61672;DHT22;47572;0.00000000;0.00000000;2022-12-07T03:42:49;17.80;67.30
61672;DHT22;47572;0.00000000;0.00000000;2022-12-07T03:45:16;17.80;67.30
61672;DHT22;47572;0.00000000;0.00000000;2022-12-07T03:48:05;17.70;67.20
61672;DHT22;47572;0.00000000;0.00000000;2022-12-07T03:53:16;17.70;67.20
61672;DHT22;47572;0.00000000;0.00000000;2022-12-07T03:55:44;17.70;67.20
61672;DHT22;47572;0.00000000;0.00000000;2022-12-07T03:58:12;17.70;67.20
61672;DHT22;47572;0.00000000;0.00000000;2022-12-07T04:00:39;17.70;67.20
61672;DHT22;47572;0.00000000;0.00000000;2022-12-07T04:03:05;17.70;67.20
61672;DHT22;47572;0.00000000;0.00000000;2022-12-07T04:05:31;17.70;67.20
61672;DHT22;47572;0.00000000;0.00000000;2022-12-07T04:07:57;17.70;67.20
61672;DHT22;47572;0.00000000;0.00000000;2022-12-07T04:10:22;17.70;67.20
61672;DHT22;47572;0.00000000;0.00000000;2022-12-07T04:12:48;17.70;67.20
61672;DHT22;47572;0.00000000;0.00000000;2022-12-07T04:15:14;17.70;67.20
61672;DHT22;47572;0.00000000;0.00000000;2022-12-07T04:17:39;17.70;67.20
61672;DHT22;47572;0.00000000;0.00000000;2022-12-07T04:20:06;17.70;67.20
61672;DHT22;47572;0.00000000;0.00000000;2022-12-07T04:22:32;17.70;67.20
61672;DHT22;47572;0.00000000;0.00000000;2022-12-07T04:24:57;17.70;67.20
61672;DHT22;47572;0.00000000;0.00000000;2022-12-07T04:27:23;17.70;67.30
61672;DHT22;47572;0.00000000;0.00000000;2022-12-07T04:29:49;17.60;67.20
61672;DHT22;47572;0.00000000;0.00000000;2022-12-07T04:32:14;17.60;67.20
61672;DHT22;47572;0.00000000;0.00000000;2022-12-07T04:34:40;17.60;67.20
61672;DHT22;47572;0.00000000;0.00000000;2022-12-07T04:37:06;17.60;67.20
61672;DHT22;47572;0.00000000;0.00000000;2022-12-07T04:39:32;17.60;67.20
61672;DHT22;47572;0.00000000;0.00000000;2022-12-07T04:41:58;17.60;67.20
61672;DHT22;47572;0.00000000;0.00000000;2022-12-07T04:44:26;17.60;67.20
61672;DHT22;47572;0.00000000;0.00000000;2022-12-07T04:46:52;17.60;67.20
61672;DHT22;47572;0.00000000;0.00000000;2022-12-07T04:49:18;17.60;67.20
61672;DHT22;47572;0.00000000;0.00000000;2022-12-07T04:51:43;17.50;67.10
61672;DHT22;47572;0.00000000;0.00000000;2022-12-07T04:54:09;17.50;67.10
61672;DHT22;47572;0.00000000;0.00000000;2022-12-07T04:56:35;17.50;67.10
61672;DHT22;47572;0.00000000;0.00000000;2022-12-07T04:59:01;17.50;67.10
61672;DHT22;47572;0.00000000;0.00000000;2022-12-07T05:01:27;17.50;67.10
61672;DHT22;47572;0.00000000;0.00000000;2022-12-07T05:03:53;17.50;67.10
61672;DHT22;47572;0.00000000;0.00000000;2022-12-07T05:06:18;17.50;67.10
61672;DHT22;47572;0.00000000;0.00000000;2022-12-07T05:08:44;17.50;68.00
61672;DHT22;47572;0.00000000;0.00000000;2022-12-07T05:11:10;17.50;67.20
61672;DHT22;47572;0.00000000;0.00000000;2022-12-07T05:13:59;17.50;67.10
61672;DHT22;47572;0.00000000;0.00000000;2022-12-07T05:16:25;17.50;67.20
61672;DHT22;47572;0.00000000;0.00000000;2022-12-07T05:18:51;17.50;67.10
61672;DHT22;47572;0.00000000;0.00000000;2022-12-07T05:21:16;17.50;67.10
61672;DHT22;47572;0.00000000;0.00000000;2022-12-07T05:23:42;17.50;67.20
61672;DHT22;47572;0.00000000;0.00000000;2022-12-07T05:26:08;17.40;68.00
61672;DHT22;47572;0.00000000;0.00000000;2022-12-07T05:28:33;17.40;67.20
61672;DHT22;47572;0.00000000;0.00000000;2022-12-07T05:30:59;17.40;67.20
61672;DHT22;47572;0.00000000;0.00000000;2022-12-07T05:33:25;17.40;67.20
61672;DHT22;47572;0.00000000;0.00000000;2022-12-07T05:35:51;17.40;67.20
61672;DHT22;47572;0.00000000;0.00000000;2022-12-07T05:38:17;17.40;67.20
61672;DHT22;47572;0.00000000;0.00000000;2022-12-07T05:40:42;17.40;67.20
61672;DHT22;47572;0.00000000;0.00000000;2022-12-07T05:43:08;17.40;67.20
61672;DHT22;47572;0.00000000;0.00000000;2022-12-07T05:45:34;17.40;67.20
61672;DHT22;47572;0.00000000;0.00000000;2022-12-07T05:48:00;17.40;67.20
61672;DHT22;47572;0.00000000;0.00000000;2022-12-07T05:50:26;17.40;67.20
61672;DHT22;47572;0.00000000;0.00000000;2022-12-07T05:52:53;17.40;67.20
61672;DHT22;47572;0.00000000;0.00000000;2022-12-07T05:55:19;17.30;67.20
61672;DHT22;47572;0.00000000;0.00000000;2022-12-07T05:57:44;17.40;67.30
61672;DHT22;47572;0.00000000;0.00000000;2022-12-07T06:00:30;17.30;67.20
61672;DHT22;47572;0.00000000;0.00000000;2022-12-07T06:02:56;17.30;67.20
61672;DHT22;47572;0.00000000;0.00000000;2022-12-07T06:05:21;17.30;67.30
61672;DHT22;47572;0.00000000;0.00000000;2022-12-07T06:07:47;17.30;67.20
61672;DHT22;47572;0.00000000;0.00000000;2022-12-07T06:10:13;17.30;67.30
61672;DHT22;47572;0.00000000;0.00000000;2022-12-07T06:12:39;17.30;67.20
61672;DHT22;47572;0.00000000;0.00000000;2022-12-07T06:15:08;17.30;67.20
61672;DHT22;47572;0.00000000;0.00000000;2022-12-07T06:17:34;17.30;67.30
61672;DHT22;47572;0.00000000;0.00000000;2022-12-07T06:19:59;17.20;67.30
61672;DHT22;47572;0.00000000;0.00000000;2022-12-07T06:22:25;17.20;67.20
61672;DHT22;47572;0.00000000;0.00000000;2022-12-07T06:24:51;17.20;67.20
61672;DHT22;47572;0.00000000;0.00000000;2022-12-07T06:27:16;17.20;67.20
61672;DHT22;47572;0.00000000;0.00000000;2022-12-07T06:29:42;17.20;67.30
61672;DHT22;47572;0.00000000;0.00000000;2022-12-07T06:32:08;17.20;67.30
61672;DHT22;47572;0.00000000;0.00000000;2022-12-07T06:34:34;17.20;67.30
61672;DHT22;47572;0.00000000;0.00000000;2022-12-07T06:37:00;17.20;67.30
61672;DHT22;47572;0.00000000;0.00000000;2022-12-07T06:39:27;17.20;67.30
61672;DHT22;47572;0.00000000;0.00000000;2022-12-07T06:41:53;17.20;67.30
61672;DHT22;47572;0.00000000;0.00000000;2022-12-07T06:44:19;17.20;67.30
61672;DHT22;47572;0.00000000;0.00000000;2022-12-07T06:46:46;17.20;67.40
61672;DHT22;47572;0.00000000;0.00000000;2022-12-07T06:49:12;17.10;67.30
61672;DHT22;47572;0.00000000;0.00000000;2022-12-07T06:51:37;17.20;67.30
61672;DHT22;47572;0.00000000;0.00000000;2022-12-07T06:54:10;17.10;67.30
61672;DHT22;47572;0.00000000;0.00000000;2022-12-07T06:56:36;17.10;67.30
61672;DHT22;47572;0.00000000;0.00000000;2022-12-07T06:59:02;17.10;67.30
61672;DHT22;47572;0.00000000;0.00000000;2022-12-07T07:01:28;17.10;67.30
61672;DHT22;47572;0.00000000;0.00000000;2022-12-07T07:03:54;17.10;67.30
61672;DHT22;47572;0.00000000;0.00000000;2022-12-07T07:06:20;17.10;67.30
61672;DHT22;47572;0.00000000;0.00000000;2022-12-07T07:08:45;17.10;67.30
61672;DHT22;47572;0.00000000;0.00000000;2022-12-07T07:11:11;17.10;67.30
61672;DHT22;47572;0.00000000;0.00000000;2022-12-07T07:13:37;17.10;67.30
61672;DHT22;47572;0.00000000;0.00000000;2022-12-07T07:16:03;17.10;67.30
61672;DHT22;47572;0.00000000;0.00000000;2022-12-07T07:18:29;17.10;67.30
61672;DHT22;47572;0.00000000;0.00000000;2022-12-07T07:20:55;17.10;67.30
61672;DHT22;47572;0.00000000;0.00000000;2022-12-07T07:23:21;17.10;67.40
61672;DHT22;47572;0.00000000;0.00000000;2022-12-07T07:25:47;17.10;67.40
61672;DHT22;47572;0.00000000;0.00000000;2022-12-07T07:28:12;17.00;67.30
61672;DHT22;47572;0.00000000;0.00000000;2022-12-07T07:30:38;17.00;67.30
61672;DHT22;47572;0.00000000;0.00000000;2022-12-07T07:33:04;17.00;67.40
61672;DHT22;47572;0.00000000;0.00000000;2022-12-07T07:35:30;17.00;67.40
61672;DHT22;47572;0.00000000;0.00000000;2022-12-07T07:37:56;17.00;67.30
61672;DHT22;47572;0.00000000;0.00000000;2022-12-07T07:40:22;17.00;67.40
61672;DHT22;47572;0.00000000;0.00000000;2022-12-07T07:42:51;17.00;67.40
61672;DHT22;47572;0.00000000;0.00000000;2022-12-07T07:45:17;17.00;67.30
61672;DHT22;47572;0.00000000;0.00000000;2022-12-07T07:47:44;17.00;68.20
61672;DHT22;47572;0.00000000;0.00000000;2022-12-07T07:50:10;17.00;67.30
61672;DHT22;47572;0.00000000;0.00000000;2022-12-07T07:52:36;17.00;67.40
61672;DHT22;47572;0.00000000;0.00000000;2022-12-07T07:55:02;17.00;67.40
61672;DHT22;47572;0.00000000;0.00000000;2022-12-07T07:57:28;17.00;67.40
61672;DHT22;47572;0.00000000;0.00000000;2022-12-07T07:59:53;17.00;67.30
61672;DHT22;47572;0.00000000;0.00000000;2022-12-07T08:02:19;17.00;67.20
61672;DHT22;47572;0.00000000;0.00000000;2022-12-07T08:04:46;17.00;67.20
61672;DHT22;47572;0.00000000;0.00000000;2022-12-07T08:07:12;17.00;67.20
61672;DHT22;47572;0.00000000;0.00000000;2022-12-07T08:09:38;17.00;67.00
61672;DHT22;47572;0.00000000;0.00000000;2022-12-07T08:12:04;17.10;67.00
61672;DHT22;47572;0.00000000;0.00000000;2022-12-07T08:14:29;17.10;66.90
61672;DHT22;47572;0.00000000;0.00000000;2022-12-07T08:16:55;17.10;66.90
61672;DHT22;47572;0.00000000;0.00000000;2022-12-07T08:19:21;17.10;66.80
61672;DHT22;47572;0.00000000;0.00000000;2022-12-07T08:21:46;17.10;66.70
61672;DHT22;47572;0.00000000;0.00000000;2022-12-07T08:24:13;17.20;66.70
61672;DHT22;47572;0.00000000;0.00000000;2022-12-07T08:26:38;17.30;66.60
61672;DHT22;47572;0.00000000;0.00000000;2022-12-07T08:29:04;17.40;66.60
61672;DHT22;47572;0.00000000;0.00000000;2022-12-07T08:31:30;17.40;66.30
61672;DHT22;47572;0.00000000;0.00000000;2022-12-07T08:33:55;17.50;66.20
61672;DHT22;47572;0.00000000;0.00000000;2022-12-07T08:36:22;17.60;66.10
61672;DHT22;47572;0.00000000;0.00000000;2022-12-07T08:38:48;17.60;65.90
61672;DHT22;47572;0.00000000;0.00000000;2022-12-07T08:41:14;17.70;65.70
61672;DHT22;47572;0.00000000;0.00000000;2022-12-07T08:43:40;17.80;65.60
61672;DHT22;47572;0.00000000;0.00000000;2022-12-07T08:50:42;18.00;65.20
61672;DHT22;47572;0.00000000;0.00000000;2022-12-07T08:53:08;18.20;64.90
61672;DHT22;47572;0.00000000;0.00000000;2022-12-07T08:55:34;18.20;64.60
61672;DHT22;47572;0.00000000;0.00000000;2022-12-07T08:58:00;18.40;64.40
61672;DHT22;47572;0.00000000;0.00000000;2022-12-07T09:00:26;18.50;64.10
61672;DHT22;47572;0.00000000;0.00000000;2022-12-07T09:02:51;18.60;63.90
61672;DHT22;47572;0.00000000;0.00000000;2022-12-07T09:05:18;18.70;63.70
61672;DHT22;47572;0.00000000;0.00000000;2022-12-07T09:07:44;18.80;63.60
61672;DHT22;47572;0.00000000;0.00000000;2022-12-07T09:10:11;18.80;63.50
61672;DHT22;47572;0.00000000;0.00000000;2022-12-07T09:12:37;18.80;63.30
61672;DHT22;47572;0.00000000;0.00000000;2022-12-07T09:15:02;18.90;63.30
61672;DHT22;47572;0.00000000;0.00000000;2022-12-07T09:17:31;18.90;63.30
61672;DHT22;47572;0.00000000;0.00000000;2022-12-07T09:19:57;18.90;63.40
61672;DHT22;47572;0.00000000;0.00000000;2022-12-07T09:22:22;18.80;63.30
61672;DHT22;47572;0.00000000;0.00000000;2022-12-07T09:24:48;18.80;63.30
61672;DHT22;47572;0.00000000;0.00000000;2022-12-07T09:27:14;18.80;63.40
61672;DHT22;47572;0.00000000;0.00000000;2022-12-07T09:29:39;18.80;63.50
61672;DHT22;47572;0.00000000;0.00000000;2022-12-07T09:32:05;18.80;63.50
61672;DHT22;47572;0.00000000;0.00000000;2022-12-07T09:34:31;18.80;63.50
61672;DHT22;47572;0.00000000;0.00000000;2022-12-07T09:36:57;18.80;63.50
61672;DHT22;47572;0.00000000;0.00000000;2022-12-07T09:39:23;18.80;63.40
61672;DHT22;47572;0.00000000;0.00000000;2022-12-07T09:41:49;18.80;63.50
61672;DHT22;47572;0.00000000;0.00000000;2022-12-07T09:44:18;18.80;63.40
61672;DHT22;47572;0.00000000;0.00000000;2022-12-07T09:46:45;18.90;63.50
61672;DHT22;47572;0.00000000;0.00000000;2022-12-07T09:49:11;18.90;63.50
61672;DHT22;47572;0.00000000;0.00000000;2022-12-07T09:51:38;18.80;63.50
61672;DHT22;47572;0.00000000;0.00000000;2022-12-07T09:54:05;18.90;63.60
61672;DHT22;47572;0.00000000;0.00000000;2022-12-07T09:56:30;18.80;63.50
61672;DHT22;47572;0.00000000;0.00000000;2022-12-07T09:59:00;18.80;63.50
61672;DHT22;47572;0.00000000;0.00000000;2022-12-07T10:01:30;18.80;63.50
61672;DHT22;47572;0.00000000;0.00000000;2022-12-07T10:04:10;18.80;63.50
61672;DHT22;47572;0.00000000;0.00000000;2022-12-07T10:06:37;18.80;63.60
61672;DHT22;47572;0.00000000;0.00000000;2022-12-07T10:09:08;18.80;63.50
61672;DHT22;47572;0.00000000;0.00000000;2022-12-07T10:11:34;18.90;63.60
61672;DHT22;47572;0.00000000;0.00000000;2022-12-07T10:14:10;18.80;63.50
61672;DHT22;47572;0.00000000;0.00000000;2022-12-07T10:16:38;18.80;63.50
61672;DHT22;47572;0.00000000;0.00000000;2022-12-07T10:19:18;18.80;63.60
61672;DHT22;47572;0.00000000;0.00000000;2022-12-07T10:21:59;18.80;63.60
61672;DHT22;47572;0.00000000;0.00000000;2022-12-07T10:24:25;18.80;63.70
61672;DHT22;47572;0.00000000;0.00000000;2022-12-07T10:26:51;18.90;63.80
61672;DHT22;47572;0.00000000;0.00000000;2022-12-07T10:29:19;18.90;63.90
61672;DHT22;47572;0.00000000;0.00000000;2022-12-07T10:31:46;18.90;63.90
61672;DHT22;47572;0.00000000;0.00000000;2022-12-07T10:34:36;18.90;63.90
61672;DHT22;47572;0.00000000;0.00000000;2022-12-07T10:37:07;18.90;64.00
61672;DHT22;47572;0.00000000;0.00000000;2022-12-07T10:42:09;18.80;64.10
61672;DHT22;47572;0.00000000;0.00000000;2022-12-07T10:44:40;18.80;64.20
61672;DHT22;47572;0.00000000;0.00000000;2022-12-07T10:47:32;18.80;64.30
61672;DHT22;47572;0.00000000;0.00000000;2022-12-07T11:00:19;18.80;64.50
61672;DHT22;47572;0.00000000;0.00000000;2022-12-07T11:02:55;18.80;64.50
61672;DHT22;47572;0.00000000;0.00000000;2022-12-07T11:10:54;18.80;64.80
61672;DHT22;47572;0.00000000;0.00000000;2022-12-07T11:13:33;18.80;64.80
61672;DHT22;47572;0.00000000;0.00000000;2022-12-07T11:18:48;18.80;64.90
61672;DHT22;47572;0.00000000;0.00000000;2022-12-07T11:23:48;18.80;65.00
61672;DHT22;47572;0.00000000;0.00000000;2022-12-07T11:29:02;18.80;65.00
61672;DHT22;47572;0.00000000;0.00000000;2022-12-07T11:31:35;18.80;65.10
61672;DHT22;47572;0.00000000;0.00000000;2022-12-07T11:36:40;18.80;65.20
61672;DHT22;47572;0.00000000;0.00000000;2022-12-07T11:39:25;18.70;65.10
61672;DHT22;47572;0.00000000;0.00000000;2022-12-07T11:41:54;18.70;65.10
61672;DHT22;47572;0.00000000;0.00000000;2022-12-07T11:49:46;18.80;65.10
61672;DHT22;47572;0.00000000;0.00000000;2022-12-07T11:52:19;18.80;65.20
61672;DHT22;47572;0.00000000;0.00000000;2022-12-07T11:54:46;18.80;65.20
61672;DHT22;47572;0.00000000;0.00000000;2022-12-07T11:57:18;18.80;65.10
61672;DHT22;47572;0.00000000;0.00000000;2022-12-07T11:59:49;18.80;65.20
61672;DHT22;47572;0.00000000;0.00000000;2022-12-07T12:02:23;18.80;65.20
61672;DHT22;47572;0.00000000;0.00000000;2022-12-07T12:07:24;18.80;65.30
61672;DHT22;47572;0.00000000;0.00000000;2022-12-07T12:09:52;18.80;65.40
61672;DHT22;47572;0.00000000;0.00000000;2022-12-07T12:22:20;18.80;65.40
61672;DHT22;47572;0.00000000;0.00000000;2022-12-07T12:24:49;18.80;65.40
61672;DHT22;47572;0.00000000;0.00000000;2022-12-07T12:29:45;18.80;65.40
61672;DHT22;47572;0.00000000;0.00000000;2022-12-07T12:32:18;18.80;65.50
61672;DHT22;47572;0.00000000;0.00000000;2022-12-07T12:42:47;18.80;65.50
61672;DHT22;47572;0.00000000;0.00000000;2022-12-07T12:45:23;18.80;65.50
61672;DHT22;47572;0.00000000;0.00000000;2022-12-07T12:47:59;18.80;65.50
61672;DHT22;47572;0.00000000;0.00000000;2022-12-07T12:50:27;18.80;65.50
61672;DHT22;47572;0.00000000;0.00000000;2022-12-07T12:55:27;18.80;65.40
61672;DHT22;47572;0.00000000;0.00000000;2022-12-07T13:00:40;18.80;65.40
61672;DHT22;47572;0.00000000;0.00000000;2022-12-07T13:03:16;18.80;65.40
61672;DHT22;47572;0.00000000;0.00000000;2022-12-07T13:05:46;18.80;65.40
61672;DHT22;47572;0.00000000;0.00000000;2022-12-07T13:10:41;18.90;65.50
61672;DHT22;47572;0.00000000;0.00000000;2022-12-07T13:21:02;18.90;65.50
61672;DHT22;47572;0.00000000;0.00000000;2022-12-07T13:23:30;18.90;65.60
61672;DHT22;47572;0.00000000;0.00000000;2022-12-07T13:28:36;18.90;65.70
61672;DHT22;47572;0.00000000;0.00000000;2022-12-07T13:33:29;18.90;65.80
61672;DHT22;47572;0.00000000;0.00000000;2022-12-07T13:35:55;18.90;65.80
61672;DHT22;47572;0.00000000;0.00000000;2022-12-07T13:38:29;18.90;65.70
61672;DHT22;47572;0.00000000;0.00000000;2022-12-07T13:41:02;19.00;65.70
61672;DHT22;47572;0.00000000;0.00000000;2022-12-07T13:43:28;19.00;65.50
61672;DHT22;47572;0.00000000;0.00000000;2022-12-07T13:45:57;19.10;65.40
61672;DHT22;47572;0.00000000;0.00000000;2022-12-07T13:48:30;19.20;65.20
61672;DHT22;47572;0.00000000;0.00000000;2022-12-07T13:50:58;19.20;65.10
61672;DHT22;47572;0.00000000;0.00000000;2022-12-07T13:53:24;19.20;65.00
61672;DHT22;47572;0.00000000;0.00000000;2022-12-07T13:55:50;19.30;64.90
61672;DHT22;47572;0.00000000;0.00000000;2022-12-07T13:58:16;19.30;64.80
61672;DHT22;47572;0.00000000;0.00000000;2022-12-07T14:00:42;19.40;64.80
61672;DHT22;47572;0.00000000;0.00000000;2022-12-07T14:05:37;19.40;64.80
61672;DHT22;47572;0.00000000;0.00000000;2022-12-07T14:08:24;19.40;64.70
61672;DHT22;47572;0.00000000;0.00000000;2022-12-07T14:15:49;19.40;64.70
61672;DHT22;47572;0.00000000;0.00000000;2022-12-07T14:18:36;19.40;64.70
61672;DHT22;47572;0.00000000;0.00000000;2022-12-07T14:21:03;19.40;64.70
61672;DHT22;47572;0.00000000;0.00000000;2022-12-07T14:23:28;19.50;64.80
61672;DHT22;47572;0.00000000;0.00000000;2022-12-07T14:26:03;19.40;64.70
61672;DHT22;47572;0.00000000;0.00000000;2022-12-07T14:28:30;19.50;64.80
61672;DHT22;47572;0.00000000;0.00000000;2022-12-07T14:30:57;19.50;64.70
61672;DHT22;47572;0.00000000;0.00000000;2022-12-07T14:33:23;19.50;64.80
61672;DHT22;47572;0.00000000;0.00000000;2022-12-07T14:35:51;19.50;64.70
61672;DHT22;47572;0.00000000;0.00000000;2022-12-07T14:38:21;19.50;64.70
61672;DHT22;47572;0.00000000;0.00000000;2022-12-07T14:40:47;19.50;64.80
61672;DHT22;47572;0.00000000;0.00000000;2022-12-07T14:43:14;19.50;64.70
61672;DHT22;47572;0.00000000;0.00000000;2022-12-07T14:45:41;19.50;64.70
61672;DHT22;47572;0.00000000;0.00000000;2022-12-07T14:48:13;19.50;64.80
61672;DHT22;47572;0.00000000;0.00000000;2022-12-07T14:50:40;19.50;65.60
61672;DHT22;47572;0.00000000;0.00000000;2022-12-07T14:53:10;19.50;64.80
61672;DHT22;47572;0.00000000;0.00000000;2022-12-07T14:55:38;19.50;64.80
61672;DHT22;47572;0.00000000;0.00000000;2022-12-07T14:58:04;19.50;64.70
61672;DHT22;47572;0.00000000;0.00000000;2022-12-07T15:00:30;19.50;64.80
61672;DHT22;47572;0.00000000;0.00000000;2022-12-07T15:02:56;19.50;64.80
61672;DHT22;47572;0.00000000;0.00000000;2022-12-07T15:05:22;19.50;64.70
61672;DHT22;47572;0.00000000;0.00000000;2022-12-07T15:07:48;19.50;64.70
61672;DHT22;47572;0.00000000;0.00000000;2022-12-07T15:10:23;19.50;64.70
61672;DHT22;47572;0.00000000;0.00000000;2022-12-07T15:12:49;19.50;65.50
61672;DHT22;47572;0.00000000;0.00000000;2022-12-07T15:15:15;19.50;64.60
61672;DHT22;47572;0.00000000;0.00000000;2022-12-07T15:17:40;19.50;64.60
61672;DHT22;47572;0.00000000;0.00000000;2022-12-07T15:20:08;19.50;64.60
61672;DHT22;47572;0.00000000;0.00000000;2022-12-07T15:22:35;19.50;64.60
61672;DHT22;47572;0.00000000;0.00000000;2022-12-07T15:25:01;19.50;64.60
61672;DHT22;47572;0.00000000;0.00000000;2022-12-07T15:27:27;19.50;64.50
61672;DHT22;47572;0.00000000;0.00000000;2022-12-07T15:29:52;19.50;64.50
61672;DHT22;47572;0.00000000;0.00000000;2022-12-07T15:32:19;19.50;64.50
61672;DHT22;47572;0.00000000;0.00000000;2022-12-07T15:34:44;19.50;64.50
61672;DHT22;47572;0.00000000;0.00000000;2022-12-07T15:37:10;19.50;64.50
61672;DHT22;47572;0.00000000;0.00000000;2022-12-07T15:39:36;19.50;64.50